Mountain Home Air Force Base, ID (83648)

12:09 PM MDT on September 18, 2014 (GMT -0600)
RAWS IDARNG3_D2 ID US | Change Station
CLOSE
Current Station
Personal Weather Station
Location: Mountain Home Air Force Base, ID
Elevation: 2934 ft
Nearby Weather Stations

Elev 2934 ft 43.11 °N, 116.00 °W | Updated 44 minutes ago

Partly Cloudy
Partly Cloudy
79 °F
Feels Like 79 °F
N
7
Wind Variable Wind from WSW
Gusts 9.0 mph

Today
High -- | Low -- °F
--% Chance of Precip.
Yesterday
High -- | Low -- °F
Precip. -- in
7:26 AM 7:47 PM
Waning Crescent, 25% visible
Pressure 29.75 in
Visibility 7.0 miles
Clouds Mostly Cloudy 3900 ft
Mostly Cloudy 10000 ft
Heat Index 79 °F
Dew Point 45 °F
Humidity 30%
Rainfall 0.00 in
Snow Depth 0 in , 1 in , 0 in
UV 3 out of 12
Pollen 8.10 out of 12
PM2.5 Moderate
Flu Activity Not available.
METAR KBOI 181753Z 00000KT 7SM BKN039 BKN100 24/08 A2983 RMK AO2 RAB42E53 SLP072 P0000 60000 T02390078 10239 20200 50010

More Conditions Fewer Conditions

Pressure 29.75 in
Visibility 7.0 miles
Clouds Mostly Cloudy 3900 ft
Mostly Cloudy 10000 ft
Heat Index 79 °F
Dew Point 45 °F
Humidity 30%
Rainfall 0.00 in
Snow Depth 0 in , 1 in , 0 in
UV 3 out of 12
Pollen 8.10 out of 12
PM2.5 Moderate
Flu Activity Not available.
METAR KBOI 181753Z 00000KT 7SM BKN039 BKN100 24/08 A2983 RMK AO2 RAB42E53 SLP072 P0000 60000 T02390078 10239 20200 50010

More Conditions Fewer Conditions

10-Day Weather Forecast

Almanac

Astronomy

Sep. 18, 2014 Rise Set
Actual Time 7:26 AM MDT 7:47 PM MDT
Civil Twilight 6:57 AM MDT 8:16 PM MDT
Nautical Twilight 6:24 AM MDT 8:49 PM MDT
Astronomical Twilight 5:50 AM MDT 9:23 PM MDT
Moon 2:16 AM MDT 4:47 PM MDT
Length of Visible Light 13h 18m
Length of Day
12h 21m
Tomorrow will be 2m 54s shorter.
Waning Crescent, 25% of the Moon is Illuminated
Today
Waning Crescent
Sep 24
New
Oct 1
First Quarter
Oct 8
Full
Oct 15
Last Quarter

Today's Extremes

State Highs State Lows

Community

WunderPhotos

Upload Photos

1,754,410 photos uploaded!

Nearby

Air Quality

  Air Quality AQ Index Pollutant
Yesterday Good
PM10
Yesterday Good
OZONE
Current Moderate
PM2.5
Thursday Moderate
PM2.5
Thursday Good
OZONE
Friday Moderate
PM2.5
Friday Good
OZONE

Snow Depth

Station Depth Elevation
Big Creek Summit 0 in 6580 ft
Savage Pass 1 in 6170 ft
Hidden Lake 0 in 5040 ft
South Mountain 0 in 6500 ft
Mica Creek 1 in 4750 ft

Earthquake Activity

City Distance Mag. Time & Date
No recent earthquake activity has been reported nearby.
Minimum magnitude displayed is 2.5.

Coastal Water Temperatures

Place Temperature
No Stations Reporting

Nearby Weather Stations